McGhee Tyson Airport Airport (TYS)

Airport Diagram
Current Weather/Forecast (VFR Conditions)
METAR KTYS 291653Z 05009KT 10SM FEW200 BKN250 06/M07 A3050 RMK AO2 SLP331 T00611067
TAF KTYS 291127Z 2912/0112 04007KT P6SM BKN250 FM010800 04004KT P6SM OVC100

All Charts
General
Chart Name Download
AIRPORT DIAGRAM
TAKEOFF MINIMUMS
ALTERNATE MINIMUMS
RADAR MINIMUMS
HOT SPOT

Departures
Chart Name Download
KNOXVILLE SEVEN

Approaches
Chart Name Download
HI-ILS OR LOC RWY 05L
HI-ILS OR LOC RWY 23L
HI-ILS OR LOC RWY 23R
ILS OR LOC RWY 05L
ILS OR LOC RWY 23L
ILS OR LOC RWY 23R
ILS RWY 23R (SA CAT I)
ILS RWY 23R (CAT II)
RNAV (GPS) RWY 05L
RNAV (GPS) RWY 05R
RNAV (GPS) RWY 23L
RNAV (GPS) RWY 23R
VOR RWY 23L
VOR RWY 23R
HI-VOR OR TACAN RWY 05L
HI-VOR OR TACAN RWY 23R


Inbound Traffic (Arrivals)

No inbound traffic.


Outbound Traffic (Departures)

No outbound traffic.